Batesville, Arkansas
Current Conditions -  °F | °C
As of 6:15 AM on Tuesday 27 Jan 2015 (Local Time) from KBVX Reporting Station
Clear Clear  
Wind Chill:   Ceiling: Unl
Heat Index:   Visibility: 10mi
Dew Point:   Wind: 5mph
Humidity: 70%   Direction: 290°WNW
Pressure: 30.07"   Gusts: NA
Location:  35.77°N, 91.65°W
Report Text: KBVX 271215Z AUTO 29004KT 10SM CLR 06/01 A3007 RMK AO1
Loading
Personal Weather Stations






























Interactive Weather Map New forecast layout! Learn more

10-Day Weather Forecast

Advertisements
Track Severe Weather on mobile